createdAt,value
2023-05-16T00:01:40.314Z,82.27
2023-05-16T00:06:41.883Z,82.85
2023-05-16T00:11:43.489Z,83.62
2023-05-16T00:16:45.635Z,83.03
2023-05-16T00:21:47.176Z,82.97
2023-05-16T00:26:48.700Z,83.80
2023-05-16T00:31:50.854Z,83.46
2023-05-16T00:36:53.225Z,83.26
2023-05-16T00:41:54.820Z,83.80
2023-05-16T00:46:56.347Z,83.38
2023-05-16T00:51:58.857Z,83.06
2023-05-16T00:57:00.797Z,82.84
2023-05-16T01:02:02.759Z,83.09
2023-05-16T01:07:04.510Z,83.32
2023-05-16T01:12:11.194Z,84.15
2023-05-16T01:17:36.932Z,84.50
2023-05-16T01:22:47.781Z,84.30
2023-05-16T01:27:49.524Z,84.04
2023-05-16T01:32:51.446Z,83.75
2023-05-16T01:38:04.870Z,82.88
2023-05-16T01:43:13.165Z,82.70
2023-05-16T01:48:21.894Z,82.43
2023-05-16T01:53:29.576Z,82.36
2023-05-16T01:58:34.577Z,82.95
2023-05-16T02:03:36.097Z,83.40
2023-05-16T02:08:37.804Z,82.30
2023-05-16T02:13:39.366Z,82.78
2023-05-16T02:18:41.528Z,82.25
2023-05-16T02:23:43.345Z,82.44
2023-05-16T02:28:45.151Z,81.81
2023-05-16T02:33:47.025Z,81.96
2023-05-16T02:38:48.565Z,81.66
2023-05-16T02:43:50.112Z,81.72
2023-05-16T02:48:52.290Z,82.43
2023-05-16T02:53:56.980Z,82.85
2023-05-16T02:58:58.514Z,82.68
2023-05-16T03:04:00.185Z,82.28
2023-05-16T03:09:01.866Z,82.44
2023-05-16T03:14:03.577Z,82.17
2023-05-16T03:19:05.774Z,81.02
2023-05-16T03:24:08.476Z,77.82
2023-05-16T03:29:10.055Z,75.79
2023-05-16T03:34:11.600Z,70.92
2023-05-16T03:39:13.105Z,66.34
2023-05-16T03:44:14.595Z,61.73
2023-05-16T03:49:16.100Z,65.58
2023-05-16T03:54:17.580Z,68.97
2023-05-16T03:59:19.096Z,70.33
2023-05-16T04:04:20.941Z,71.79
2023-05-16T04:09:22.438Z,72.71
2023-05-16T04:14:24.300Z,73.26
2023-05-16T04:19:26.172Z,73.60
2023-05-16T04:24:29.012Z,73.89
2023-05-16T04:29:32.305Z,74.32
2023-05-16T04:34:39.838Z,74.43
2023-05-16T04:39:42.706Z,74.43
2023-05-16T04:44:44.858Z,73.96
2023-05-16T04:49:46.459Z,73.67
2023-05-16T04:54:51.102Z,73.71
2023-05-16T04:59:52.736Z,73.19
2023-05-16T05:04:54.891Z,72.93
2023-05-16T05:09:56.490Z,72.84
2023-05-16T05:14:58.021Z,72.23
2023-05-16T05:20:01.764Z,72.07
2023-05-16T05:25:06.626Z,72.19
2023-05-16T05:30:08.724Z,71.75
2023-05-16T05:35:10.337Z,71.81
2023-05-16T05:40:12.025Z,71.00
2023-05-16T05:45:13.496Z,70.89
2023-05-16T05:50:16.309Z,70.84
2023-05-16T05:55:19.942Z,70.77
2023-05-16T06:00:22.287Z,70.44
2023-05-16T06:05:24.149Z,70.17
2023-05-16T06:10:26.217Z,69.42
2023-05-16T06:15:28.090Z,69.41
2023-05-16T06:20:30.049Z,69.51
2023-05-16T06:25:32.117Z,69.04
2023-05-16T06:30:36.439Z,69.10
2023-05-16T06:35:38.185Z,68.50
2023-05-16T06:40:39.804Z,68.42
2023-05-16T06:45:41.625Z,68.07
2023-05-16T06:50:47.804Z,67.56
2023-05-16T06:55:49.634Z,67.07
2023-05-16T07:00:52.218Z,66.89
2023-05-16T07:05:53.968Z,66.10
2023-05-16T07:10:55.593Z,65.01
2023-05-16T07:15:57.633Z,64.07
2023-05-16T07:20:59.347Z,63.76
2023-05-16T07:26:01.044Z,63.26
2023-05-16T07:31:02.778Z,63.06
2023-05-16T07:36:15.975Z,63.02
2023-05-16T07:41:18.837Z,63.27
2023-05-16T07:46:20.495Z,62.89
2023-05-16T07:51:22.276Z,62.42
2023-05-16T07:56:24.054Z,61.50
2023-05-16T08:01:26.483Z,62.44
2023-05-16T08:06:28.076Z,61.73
2023-05-16T08:11:29.955Z,62.16
2023-05-16T08:16:31.675Z,60.40
2023-05-16T08:21:35.230Z,61.60
2023-05-16T08:26:37.516Z,60.29
2023-05-16T08:31:39.844Z,59.77
2023-05-16T08:36:41.721Z,59.20
2023-05-16T08:41:43.782Z,60.10
2023-05-16T08:46:50.727Z,59.56
2023-05-16T08:51:57.827Z,59.51
2023-05-16T08:57:01.829Z,59.87
2023-05-16T09:02:05.498Z,58.51
2023-05-16T09:07:07.038Z,57.42
2023-05-16T09:12:09.998Z,57.72
2023-05-16T09:17:13.053Z,57.79
2023-05-16T09:22:21.058Z,58.41
2023-05-16T09:27:22.693Z,57.56
2023-05-16T09:32:25.220Z,56.94
2023-05-16T09:37:26.809Z,57.35
2023-05-16T09:42:28.327Z,57.53
2023-05-16T09:47:29.938Z,56.18
2023-05-16T09:52:31.548Z,54.83
2023-05-16T09:57:33.091Z,55.79
2023-05-16T10:02:38.359Z,54.84
2023-05-16T10:07:40.812Z,55.63
2023-05-16T10:12:43.029Z,54.56
2023-05-16T10:17:49.390Z,54.55
2023-05-16T10:22:55.653Z,54.60
2023-05-16T10:27:58.555Z,53.72
2023-05-16T10:33:01.831Z,52.95
2023-05-16T10:38:07.447Z,52.63
2023-05-16T10:43:10.021Z,52.30
2023-05-16T10:48:12.889Z,53.08
2023-05-16T10:53:18.474Z,52.92
2023-05-16T10:58:37.940Z,52.20
2023-05-16T11:04:02.545Z,52.13
2023-05-16T11:09:10.558Z,51.76
2023-05-16T11:14:34.050Z,52.64
2023-05-16T11:19:42.029Z,51.55
2023-05-16T11:25:02.184Z,52.52
2023-05-16T11:30:06.559Z,51.94
2023-05-16T11:35:14.486Z,51.61
2023-05-16T11:40:17.596Z,52.18
2023-05-16T11:45:21.871Z,50.94
2023-05-16T11:50:24.286Z,51.20
2023-05-16T11:55:41.006Z,49.92
2023-05-16T12:00:51.448Z,50.54
2023-05-16T12:05:54.694Z,50.03
2023-05-16T12:10:56.469Z,48.56
2023-05-16T12:15:58.879Z,49.74
2023-05-16T12:21:00.621Z,47.45
2023-05-16T12:26:07.086Z,47.67
2023-05-16T12:31:31.209Z,48.55
2023-05-16T12:36:35.207Z,46.46
2023-05-16T12:41:42.344Z,48.24
2023-05-16T12:46:46.175Z,47.51
2023-05-16T12:51:52.575Z,47.79
2023-05-16T12:56:54.206Z,46.97
2023-05-16T13:01:55.814Z,47.65
2023-05-16T13:06:59.572Z,46.46
2023-05-16T13:12:04.389Z,46.50
2023-05-16T13:17:05.923Z,46.13
2023-05-16T13:22:07.628Z,46.72
2023-05-16T13:27:09.200Z,47.65
2023-05-16T13:32:10.975Z,46.22
2023-05-16T13:37:12.762Z,46.89
2023-05-16T13:42:14.343Z,45.20
2023-05-16T13:47:16.453Z,45.82
2023-05-16T13:52:18.051Z,45.89
2023-05-16T13:57:19.633Z,46.61
2023-05-16T14:02:21.397Z,46.26
2023-05-16T14:07:23.046Z,46.73
2023-05-16T14:12:24.661Z,47.59
2023-05-16T14:17:27.012Z,47.26
2023-05-16T14:22:28.663Z,47.45
2023-05-16T14:27:30.824Z,47.44
2023-05-16T14:32:32.652Z,47.51
2023-05-16T14:37:34.418Z,47.93
2023-05-16T14:42:36.585Z,47.91
2023-05-16T14:47:38.518Z,47.60
2023-05-16T14:52:40.729Z,46.95
2023-05-16T14:57:44.051Z,46.84
2023-05-16T15:02:47.033Z,47.36
2023-05-16T15:07:50.093Z,47.06
2023-05-16T15:12:51.744Z,46.61
2023-05-16T15:17:54.941Z,47.26
2023-05-16T15:22:56.583Z,47.84
2023-05-16T15:27:58.208Z,47.68
2023-05-16T15:32:59.765Z,48.34
2023-05-16T15:38:01.494Z,49.09
2023-05-16T15:43:03.956Z,49.56
2023-05-16T15:48:05.613Z,50.06
2023-05-16T15:53:07.411Z,51.22
2023-05-16T15:58:08.986Z,51.11
2023-05-16T16:03:10.765Z,52.22
2023-05-16T16:08:12.589Z,53.14
2023-05-16T16:13:14.183Z,52.89
2023-05-16T16:18:15.809Z,52.62
2023-05-16T16:23:17.329Z,53.85
2023-05-16T16:28:20.533Z,53.95
2023-05-16T16:33:23.521Z,54.44
2023-05-16T16:38:25.076Z,54.30
2023-05-16T16:43:26.814Z,54.84
2023-05-16T16:48:28.420Z,54.46
2023-05-16T16:53:32.587Z,54.85
2023-05-16T16:58:34.223Z,56.06
2023-05-16T17:03:36.181Z,55.48
2023-05-16T17:08:37.919Z,55.13
2023-05-16T17:13:42.005Z,56.92
2023-05-16T17:18:43.830Z,57.42
2023-05-16T17:23:45.489Z,57.40
2023-05-16T17:28:49.308Z,57.32
2023-05-16T17:33:51.287Z,57.86
2023-05-16T17:38:52.847Z,58.12
2023-05-16T17:43:54.501Z,59.43
2023-05-16T17:48:56.062Z,58.90
2023-05-16T17:53:57.713Z,59.77
2023-05-16T17:58:59.349Z,60.60
2023-05-16T18:04:01.329Z,60.06
2023-05-16T18:09:06.571Z,60.27
2023-05-16T18:14:14.455Z,60.14
2023-05-16T18:19:16.418Z,60.78
2023-05-16T18:24:18.120Z,61.14
2023-05-16T18:29:19.859Z,61.33
2023-05-16T18:34:21.498Z,61.68
2023-05-16T18:39:23.066Z,60.71
2023-05-16T18:44:24.618Z,61.95
2023-05-16T18:49:26.754Z,61.56
2023-05-16T18:54:28.329Z,63.07
2023-05-16T18:59:30.368Z,62.89
2023-05-16T19:04:32.105Z,63.32
2023-05-16T19:09:34.006Z,64.13
2023-05-16T19:14:38.502Z,64.50
2023-05-16T19:19:40.141Z,64.56
2023-05-16T19:24:41.811Z,64.28
2023-05-16T19:29:43.428Z,64.69
2023-05-16T19:34:45.041Z,64.86
2023-05-16T19:39:46.686Z,65.14
2023-05-16T19:44:48.213Z,65.05
2023-05-16T19:49:49.889Z,65.34
2023-05-16T19:54:51.695Z,65.11
2023-05-16T19:59:53.267Z,65.82
2023-05-16T20:04:54.836Z,65.55
2023-05-16T20:09:56.586Z,65.71
2023-05-16T20:14:58.353Z,66.08
2023-05-16T20:20:00.348Z,66.32
2023-05-16T20:25:02.029Z,66.44
2023-05-16T20:30:05.057Z,66.88
2023-05-16T20:35:10.193Z,66.57
2023-05-16T20:40:12.147Z,66.55
2023-05-16T20:45:13.735Z,67.59
2023-05-16T20:50:15.443Z,67.22
2023-05-16T20:55:16.991Z,66.39
2023-05-16T21:00:25.484Z,66.79
2023-05-16T21:05:27.152Z,67.18
2023-05-16T21:10:28.856Z,67.45
2023-05-16T21:15:30.826Z,67.84
2023-05-16T21:20:32.401Z,68.11
2023-05-16T21:25:33.956Z,67.01
2023-05-16T21:30:37.012Z,67.16
2023-05-16T21:35:38.547Z,67.87
2023-05-16T21:40:40.293Z,68.32
2023-05-16T21:45:41.837Z,70.18
2023-05-16T21:50:44.039Z,68.39
2023-05-16T21:55:45.570Z,70.30
2023-05-16T22:00:52.579Z,71.24
2023-05-16T22:05:54.215Z,72.09
2023-05-16T22:10:55.984Z,71.43
2023-05-16T22:16:04.423Z,70.48
2023-05-16T22:21:07.037Z,71.74
2023-05-16T22:26:08.731Z,72.44
2023-05-16T22:31:10.356Z,73.48
2023-05-16T22:36:11.886Z,72.27
2023-05-16T22:41:13.446Z,73.22
2023-05-16T22:46:15.546Z,73.67
2023-05-16T22:51:17.514Z,75.02
2023-05-16T22:56:19.045Z,75.05
2023-05-16T23:01:20.607Z,76.91
2023-05-16T23:06:22.177Z,78.34
2023-05-16T23:11:23.751Z,75.73
2023-05-16T23:16:25.451Z,78.07
2023-05-16T23:21:26.981Z,78.57
2023-05-16T23:26:28.549Z,79.03
2023-05-16T23:31:30.147Z,78.50
2023-05-16T23:36:31.922Z,78.92
2023-05-16T23:41:33.676Z,78.73
2023-05-16T23:46:35.205Z,80.63
2023-05-16T23:51:52.688Z,80.81
2023-05-16T23:56:58.260Z,80.57
